sensor_id;sensor_type;location;lat;lon;timestamp;temperature;humidity
76785;SHT30;66893;44.316;0.092;2024-03-08T00:01:47;19.13;47.55
76785;SHT30;66893;44.316;0.092;2024-03-08T00:04:13;19.13;47.60
76785;SHT30;66893;44.316;0.092;2024-03-08T00:06:40;19.13;47.62
76785;SHT30;66893;44.316;0.092;2024-03-08T00:09:05;19.09;47.64
76785;SHT30;66893;44.316;0.092;2024-03-08T00:11:35;19.09;47.66
76785;SHT30;66893;44.316;0.092;2024-03-08T00:14:01;19.09;47.73
76785;SHT30;66893;44.316;0.092;2024-03-08T00:16:27;19.09;47.70
76785;SHT30;66893;44.316;0.092;2024-03-08T00:18:52;19.06;47.75
76785;SHT30;66893;44.316;0.092;2024-03-08T00:21:18;19.07;47.73
76785;SHT30;66893;44.316;0.092;2024-03-08T00:23:43;19.06;47.76
76785;SHT30;66893;44.316;0.092;2024-03-08T00:26:09;19.05;47.81
76785;SHT30;66893;44.316;0.092;2024-03-08T00:28:34;19.02;47.86
76785;SHT30;66893;44.316;0.092;2024-03-08T00:31:00;19.03;47.82
76785;SHT30;66893;44.316;0.092;2024-03-08T00:33:26;19.00;47.89
76785;SHT30;66893;44.316;0.092;2024-03-08T00:35:53;18.96;47.89
76785;SHT30;66893;44.316;0.092;2024-03-08T00:38:19;18.98;47.92
76785;SHT30;66893;44.316;0.092;2024-03-08T00:40:44;18.96;47.94
76785;SHT30;66893;44.316;0.092;2024-03-08T00:43:10;18.95;47.97
76785;SHT30;66893;44.316;0.092;2024-03-08T00:45:36;18.94;47.99
76785;SHT30;66893;44.316;0.092;2024-03-08T00:48:03;18.95;48.00
76785;SHT30;66893;44.316;0.092;2024-03-08T00:50:28;18.95;48.03
76785;SHT30;66893;44.316;0.092;2024-03-08T00:52:54;18.92;48.04
76785;SHT30;66893;44.316;0.092;2024-03-08T00:55:19;18.91;48.00
76785;SHT30;66893;44.316;0.092;2024-03-08T00:57:45;18.91;48.03
76785;SHT30;66893;44.316;0.092;2024-03-08T01:00:11;18.89;48.03
76785;SHT30;66893;44.316;0.092;2024-03-08T01:02:38;18.86;48.08
76785;SHT30;66893;44.316;0.092;2024-03-08T01:05:04;18.85;48.07
76785;SHT30;66893;44.316;0.092;2024-03-08T01:07:35;18.85;48.12
76785;SHT30;66893;44.316;0.092;2024-03-08T01:10:04;18.84;48.12
76785;SHT30;66893;44.316;0.092;2024-03-08T01:12:34;18.82;48.13
76785;SHT30;66893;44.316;0.092;2024-03-08T01:15:00;18.81;48.12
76785;SHT30;66893;44.316;0.092;2024-03-08T01:17:25;18.81;48.17
76785;SHT30;66893;44.316;0.092;2024-03-08T01:19:52;18.78;48.17
76785;SHT30;66893;44.316;0.092;2024-03-08T01:22:18;18.78;48.19
76785;SHT30;66893;44.316;0.092;2024-03-08T01:24:44;18.76;48.22
76785;SHT30;66893;44.316;0.092;2024-03-08T01:27:09;18.78;48.22
76785;SHT30;66893;44.316;0.092;2024-03-08T01:29:35;18.71;48.19
76785;SHT30;66893;44.316;0.092;2024-03-08T01:32:00;18.71;48.24
76785;SHT30;66893;44.316;0.092;2024-03-08T01:34:27;18.72;48.23
76785;SHT30;66893;44.316;0.092;2024-03-08T01:36:54;18.71;48.24
76785;SHT30;66893;44.316;0.092;2024-03-08T01:39:21;18.69;48.22
76785;SHT30;66893;44.316;0.092;2024-03-08T01:41:47;18.69;48.28
76785;SHT30;66893;44.316;0.092;2024-03-08T01:44:13;18.68;48.31
76785;SHT30;66893;44.316;0.092;2024-03-08T01:46:44;18.68;48.30
76785;SHT30;66893;44.316;0.092;2024-03-08T01:49:10;18.65;48.27
76785;SHT30;66893;44.316;0.092;2024-03-08T01:51:36;18.64;48.31
76785;SHT30;66893;44.316;0.092;2024-03-08T01:54:04;18.62;48.31
76785;SHT30;66893;44.316;0.092;2024-03-08T01:56:30;18.59;48.35
76785;SHT30;66893;44.316;0.092;2024-03-08T01:58:57;18.59;48.35
76785;SHT30;66893;44.316;0.092;2024-03-08T02:01:23;18.59;48.37
76785;SHT30;66893;44.316;0.092;2024-03-08T02:03:49;18.55;48.37
76785;SHT30;66893;44.316;0.092;2024-03-08T02:06:14;18.57;48.39
76785;SHT30;66893;44.316;0.092;2024-03-08T02:08:44;18.55;48.37
76785;SHT30;66893;44.316;0.092;2024-03-08T02:11:11;18.51;48.40
76785;SHT30;66893;44.316;0.092;2024-03-08T02:13:36;18.51;48.41
76785;SHT30;66893;44.316;0.092;2024-03-08T02:16:02;18.52;48.40
76785;SHT30;66893;44.316;0.092;2024-03-08T02:18:29;18.52;48.42
76785;SHT30;66893;44.316;0.092;2024-03-08T02:20:56;18.51;48.37
76785;SHT30;66893;44.316;0.092;2024-03-08T02:23:22;18.48;48.46
76785;SHT30;66893;44.316;0.092;2024-03-08T02:25:50;18.50;48.45
76785;SHT30;66893;44.316;0.092;2024-03-08T02:28:16;18.47;48.46
76785;SHT30;66893;44.316;0.092;2024-03-08T02:30:44;18.48;48.47
76785;SHT30;66893;44.316;0.092;2024-03-08T02:33:09;18.45;48.47
76785;SHT30;66893;44.316;0.092;2024-03-08T02:35:35;18.44;48.49
76785;SHT30;66893;44.316;0.092;2024-03-08T02:38:02;18.44;48.53
76785;SHT30;66893;44.316;0.092;2024-03-08T02:40:29;18.43;48.53
76785;SHT30;66893;44.316;0.092;2024-03-08T02:42:54;18.43;48.55
76785;SHT30;66893;44.316;0.092;2024-03-08T02:45:20;18.41;48.55
76785;SHT30;66893;44.316;0.092;2024-03-08T02:47:46;18.37;48.58
76785;SHT30;66893;44.316;0.092;2024-03-08T02:50:11;18.40;48.55
76785;SHT30;66893;44.316;0.092;2024-03-08T02:52:37;18.38;48.59
76785;SHT30;66893;44.316;0.092;2024-03-08T02:55:03;18.36;48.61
76785;SHT30;66893;44.316;0.092;2024-03-08T02:57:31;18.36;48.62
76785;SHT30;66893;44.316;0.092;2024-03-08T02:59:57;18.36;48.67
76785;SHT30;66893;44.316;0.092;2024-03-08T03:02:25;18.34;48.69
76785;SHT30;66893;44.316;0.092;2024-03-08T03:04:52;18.33;48.70
76785;SHT30;66893;44.316;0.092;2024-03-08T03:07:17;18.33;48.75
76785;SHT30;66893;44.316;0.092;2024-03-08T03:09:43;18.30;48.74
76785;SHT30;66893;44.316;0.092;2024-03-08T03:12:08;18.27;48.78
76785;SHT30;66893;44.316;0.092;2024-03-08T03:14:36;18.29;48.82
76785;SHT30;66893;44.316;0.092;2024-03-08T03:17:05;18.27;48.81
76785;SHT30;66893;44.316;0.092;2024-03-08T03:19:30;18.26;48.87
76785;SHT30;66893;44.316;0.092;2024-03-08T03:21:56;18.26;48.91
76785;SHT30;66893;44.316;0.092;2024-03-08T03:24:22;18.22;48.92
76785;SHT30;66893;44.316;0.092;2024-03-08T03:26:48;18.20;48.91
76785;SHT30;66893;44.316;0.092;2024-03-08T03:29:15;18.22;48.88
76785;SHT30;66893;44.316;0.092;2024-03-08T03:31:42;18.22;48.93
76785;SHT30;66893;44.316;0.092;2024-03-08T03:34:12;18.22;48.98
76785;SHT30;66893;44.316;0.092;2024-03-08T03:36:37;18.18;48.98
76785;SHT30;66893;44.316;0.092;2024-03-08T03:39:08;18.18;48.99
76785;SHT30;66893;44.316;0.092;2024-03-08T03:41:38;18.18;49.02
76785;SHT30;66893;44.316;0.092;2024-03-08T03:44:07;18.16;49.03
76785;SHT30;66893;44.316;0.092;2024-03-08T03:46:33;18.18;49.03
76785;SHT30;66893;44.316;0.092;2024-03-08T03:48:59;18.13;49.06
76785;SHT30;66893;44.316;0.092;2024-03-08T03:51:24;18.13;49.05
76785;SHT30;66893;44.316;0.092;2024-03-08T03:53:50;18.13;49.09
76785;SHT30;66893;44.316;0.092;2024-03-08T03:56:16;18.12;49.14
76785;SHT30;66893;44.316;0.092;2024-03-08T03:58:41;18.09;49.15
76785;SHT30;66893;44.316;0.092;2024-03-08T04:01:08;18.06;49.12
76785;SHT30;66893;44.316;0.092;2024-03-08T04:03:35;18.04;49.21
76785;SHT30;66893;44.316;0.092;2024-03-08T04:06:00;18.03;49.19
76785;SHT30;66893;44.316;0.092;2024-03-08T04:08:27;18.04;49.18
76785;SHT30;66893;44.316;0.092;2024-03-08T04:10:52;18.04;49.16
76785;SHT30;66893;44.316;0.092;2024-03-08T04:13:18;18.02;49.18
76785;SHT30;66893;44.316;0.092;2024-03-08T04:15:45;18.03;49.17
76785;SHT30;66893;44.316;0.092;2024-03-08T04:18:13;18.00;49.24
76785;SHT30;66893;44.316;0.092;2024-03-08T04:20:39;18.03;49.21
76785;SHT30;66893;44.316;0.092;2024-03-08T04:23:05;18.02;49.21
76785;SHT30;66893;44.316;0.092;2024-03-08T04:25:31;18.02;49.19
76785;SHT30;66893;44.316;0.092;2024-03-08T04:27:56;18.00;49.27
76785;SHT30;66893;44.316;0.092;2024-03-08T04:30:22;17.99;49.28
76785;SHT30;66893;44.316;0.092;2024-03-08T04:32:47;17.99;49.29
76785;SHT30;66893;44.316;0.092;2024-03-08T04:35:13;17.99;49.32
76785;SHT30;66893;44.316;0.092;2024-03-08T04:37:40;17.96;49.33
76785;SHT30;66893;44.316;0.092;2024-03-08T04:40:05;17.97;49.38
76785;SHT30;66893;44.316;0.092;2024-03-08T04:42:31;17.96;49.42
76785;SHT30;66893;44.316;0.092;2024-03-08T04:44:58;17.93;49.45
76785;SHT30;66893;44.316;0.092;2024-03-08T04:47:23;17.95;49.42
76785;SHT30;66893;44.316;0.092;2024-03-08T04:49:50;17.93;49.41
76785;SHT30;66893;44.316;0.092;2024-03-08T04:52:15;17.95;49.47
76785;SHT30;66893;44.316;0.092;2024-03-08T04:54:42;17.90;49.49
76785;SHT30;66893;44.316;0.092;2024-03-08T04:57:08;17.90;49.50
76785;SHT30;66893;44.316;0.092;2024-03-08T04:59:33;17.89;49.51
76785;SHT30;66893;44.316;0.092;2024-03-08T05:01:59;17.89;49.54
76785;SHT30;66893;44.316;0.092;2024-03-08T05:04:24;17.85;49.64
76785;SHT30;66893;44.316;0.092;2024-03-08T05:06:50;17.86;49.56
76785;SHT30;66893;44.316;0.092;2024-03-08T05:09:15;17.85;49.60
76785;SHT30;66893;44.316;0.092;2024-03-08T05:11:42;17.86;49.62
76785;SHT30;66893;44.316;0.092;2024-03-08T05:14:09;17.83;49.66
76785;SHT30;66893;44.316;0.092;2024-03-08T05:16:35;17.85;49.68
76785;SHT30;66893;44.316;0.092;2024-03-08T05:19:01;17.82;49.66
76785;SHT30;66893;44.316;0.092;2024-03-08T05:21:27;17.81;49.69
76785;SHT30;66893;44.316;0.092;2024-03-08T05:23:54;17.81;49.76
76785;SHT30;66893;44.316;0.092;2024-03-08T05:26:20;17.79;49.80
76785;SHT30;66893;44.316;0.092;2024-03-08T05:28:47;17.78;49.77
76785;SHT30;66893;44.316;0.092;2024-03-08T05:31:22;17.75;49.82
76785;SHT30;66893;44.316;0.092;2024-03-08T05:33:49;17.75;49.81
76785;SHT30;66893;44.316;0.092;2024-03-08T05:36:15;17.74;49.83
76785;SHT30;66893;44.316;0.092;2024-03-08T05:38:42;17.72;49.84
76785;SHT30;66893;44.316;0.092;2024-03-08T05:41:09;17.72;49.85
76785;SHT30;66893;44.316;0.092;2024-03-08T05:43:34;17.71;49.83
76785;SHT30;66893;44.316;0.092;2024-03-08T05:46:00;17.69;49.93
76785;SHT30;66893;44.316;0.092;2024-03-08T05:48:25;17.69;49.90
76785;SHT30;66893;44.316;0.092;2024-03-08T05:50:51;17.68;49.94
76785;SHT30;66893;44.316;0.092;2024-03-08T05:53:16;17.67;49.94
76785;SHT30;66893;44.316;0.092;2024-03-08T05:55:42;17.65;49.94
76785;SHT30;66893;44.316;0.092;2024-03-08T05:58:07;17.65;49.98
76785;SHT30;66893;44.316;0.092;2024-03-08T06:00:34;17.65;50.01
76785;SHT30;66893;44.316;0.092;2024-03-08T06:02:59;17.64;50.04
76785;SHT30;66893;44.316;0.092;2024-03-08T06:05:25;17.61;50.05
76785;SHT30;66893;44.316;0.092;2024-03-08T06:07:50;17.61;50.09
76785;SHT30;66893;44.316;0.092;2024-03-08T06:10:18;17.61;50.11
76785;SHT30;66893;44.316;0.092;2024-03-08T06:12:44;17.62;50.16
76785;SHT30;66893;44.316;0.092;2024-03-08T06:15:11;17.59;50.12
76785;SHT30;66893;44.316;0.092;2024-03-08T06:17:46;17.59;50.17
76785;SHT30;66893;44.316;0.092;2024-03-08T06:20:11;17.55;50.19
76785;SHT30;66893;44.316;0.092;2024-03-08T06:22:38;17.57;50.17
76785;SHT30;66893;44.316;0.092;2024-03-08T06:25:10;17.58;50.19
76785;SHT30;66893;44.316;0.092;2024-03-08T06:27:40;17.57;50.27
76785;SHT30;66893;44.316;0.092;2024-03-08T06:30:06;17.57;50.29
76785;SHT30;66893;44.316;0.092;2024-03-08T06:32:32;17.54;50.30
76785;SHT30;66893;44.316;0.092;2024-03-08T06:35:01;17.57;50.29
76785;SHT30;66893;44.316;0.092;2024-03-08T06:37:28;17.54;50.32
76785;SHT30;66893;44.316;0.092;2024-03-08T06:39:53;17.51;50.35
76785;SHT30;66893;44.316;0.092;2024-03-08T06:42:20;17.54;50.44
76785;SHT30;66893;44.316;0.092;2024-03-08T06:44:45;17.52;50.46
76785;SHT30;66893;44.316;0.092;2024-03-08T06:47:15;17.51;50.43
76785;SHT30;66893;44.316;0.092;2024-03-08T06:49:44;17.51;50.46
76785;SHT30;66893;44.316;0.092;2024-03-08T06:52:10;17.51;50.50
76785;SHT30;66893;44.316;0.092;2024-03-08T06:54:36;17.51;50.55
76785;SHT30;66893;44.316;0.092;2024-03-08T06:57:05;17.51;50.54
76785;SHT30;66893;44.316;0.092;2024-03-08T06:59:33;17.51;50.59
76785;SHT30;66893;44.316;0.092;2024-03-08T07:02:01;17.50;50.55
76785;SHT30;66893;44.316;0.092;2024-03-08T07:04:27;17.47;50.60
76785;SHT30;66893;44.316;0.092;2024-03-08T07:06:55;17.48;50.61
76785;SHT30;66893;44.316;0.092;2024-03-08T07:09:21;17.48;50.64
76785;SHT30;66893;44.316;0.092;2024-03-08T07:11:46;17.48;50.66
76785;SHT30;66893;44.316;0.092;2024-03-08T07:14:12;17.48;50.67
76785;SHT30;66893;44.316;0.092;2024-03-08T07:16:40;17.48;50.70
76785;SHT30;66893;44.316;0.092;2024-03-08T07:19:06;17.45;50.77
76785;SHT30;66893;44.316;0.092;2024-03-08T07:21:32;17.48;50.76
76785;SHT30;66893;44.316;0.092;2024-03-08T07:23:57;17.45;50.76
76785;SHT30;66893;44.316;0.092;2024-03-08T07:26:26;17.44;50.81
76785;SHT30;66893;44.316;0.092;2024-03-08T07:28:51;17.45;50.88
76785;SHT30;66893;44.316;0.092;2024-03-08T07:31:17;17.47;50.89
76785;SHT30;66893;44.316;0.092;2024-03-08T07:34:08;17.42;50.89
76785;SHT30;66893;44.316;0.092;2024-03-08T07:36:34;17.44;50.90
76785;SHT30;66893;44.316;0.092;2024-03-08T07:39:02;17.44;50.91
76785;SHT30;66893;44.316;0.092;2024-03-08T07:41:30;17.42;51.00
76785;SHT30;66893;44.316;0.092;2024-03-08T07:43:56;17.42;51.04
76785;SHT30;66893;44.316;0.092;2024-03-08T07:46:21;17.41;51.11
76785;SHT30;66893;44.316;0.092;2024-03-08T07:48:48;17.42;51.08
76785;SHT30;66893;44.316;0.092;2024-03-08T07:51:16;17.42;51.11
76785;SHT30;66893;44.316;0.092;2024-03-08T07:53:43;17.41;51.11
76785;SHT30;66893;44.316;0.092;2024-03-08T07:56:08;17.35;51.32
76785;SHT30;66893;44.316;0.092;2024-03-08T07:58:38;17.32;51.44
76785;SHT30;66893;44.316;0.092;2024-03-08T08:01:06;17.30;51.59
76785;SHT30;66893;44.316;0.092;2024-03-08T08:03:31;17.30;51.57
76785;SHT30;66893;44.316;0.092;2024-03-08T08:05:56;17.28;51.67
76785;SHT30;66893;44.316;0.092;2024-03-08T08:08:22;17.28;51.80
76785;SHT30;66893;44.316;0.092;2024-03-08T08:10:47;17.31;51.74
76785;SHT30;66893;44.316;0.092;2024-03-08T08:13:14;17.30;51.78
76785;SHT30;66893;44.316;0.092;2024-03-08T08:15:40;17.30;51.78
76785;SHT30;66893;44.316;0.092;2024-03-08T08:18:06;17.28;51.88
76785;SHT30;66893;44.316;0.092;2024-03-08T08:20:31;17.30;51.86
76785;SHT30;66893;44.316;0.092;2024-03-08T08:22:57;17.30;51.86
76785;SHT30;66893;44.316;0.092;2024-03-08T08:25:24;17.28;51.95
76785;SHT30;66893;44.316;0.092;2024-03-08T08:27:50;17.30;52.02
76785;SHT30;66893;44.316;0.092;2024-03-08T08:30:15;17.27;52.08
76785;SHT30;66893;44.316;0.092;2024-03-08T08:32:41;17.26;52.01
76785;SHT30;66893;44.316;0.092;2024-03-08T08:35:09;17.27;52.08
76785;SHT30;66893;44.316;0.092;2024-03-08T08:37:35;17.28;52.10
76785;SHT30;66893;44.316;0.092;2024-03-08T08:40:03;17.27;52.15
76785;SHT30;66893;44.316;0.092;2024-03-08T08:42:34;17.27;52.17
76785;SHT30;66893;44.316;0.092;2024-03-08T08:45:00;17.28;52.21
76785;SHT30;66893;44.316;0.092;2024-03-08T08:47:26;17.28;52.34
76785;SHT30;66893;44.316;0.092;2024-03-08T08:49:52;17.28;52.48
76785;SHT30;66893;44.316;0.092;2024-03-08T08:52:19;17.26;52.45
76785;SHT30;66893;44.316;0.092;2024-03-08T08:54:45;17.26;52.45
76785;SHT30;66893;44.316;0.092;2024-03-08T08:57:10;17.27;52.48
76785;SHT30;66893;44.316;0.092;2024-03-08T08:59:36;17.26;52.53
76785;SHT30;66893;44.316;0.092;2024-03-08T09:02:07;17.27;52.66
76785;SHT30;66893;44.316;0.092;2024-03-08T09:04:34;17.26;52.59
76785;SHT30;66893;44.316;0.092;2024-03-08T09:07:01;17.26;52.63
76785;SHT30;66893;44.316;0.092;2024-03-08T09:09:26;17.24;52.70
76785;SHT30;66893;44.316;0.092;2024-03-08T09:11:52;17.24;52.78
76785;SHT30;66893;44.316;0.092;2024-03-08T09:14:19;17.27;52.75
76785;SHT30;66893;44.316;0.092;2024-03-08T09:16:45;17.26;52.78
76785;SHT30;66893;44.316;0.092;2024-03-08T09:19:12;17.24;52.85
76785;SHT30;66893;44.316;0.092;2024-03-08T09:21:38;17.24;52.85
76785;SHT30;66893;44.316;0.092;2024-03-08T09:24:05;17.26;52.85
76785;SHT30;66893;44.316;0.092;2024-03-08T09:26:32;17.24;52.86
76785;SHT30;66893;44.316;0.092;2024-03-08T09:28:59;17.24;52.90
76785;SHT30;66893;44.316;0.092;2024-03-08T09:31:24;17.24;52.96
76785;SHT30;66893;44.316;0.092;2024-03-08T09:33:51;17.27;52.99
76785;SHT30;66893;44.316;0.092;2024-03-08T09:36:17;17.24;53.13
76785;SHT30;66893;44.316;0.092;2024-03-08T09:38:42;17.24;53.16
76785;SHT30;66893;44.316;0.092;2024-03-08T09:41:08;17.26;53.19
76785;SHT30;66893;44.316;0.092;2024-03-08T09:43:35;17.23;53.31
76785;SHT30;66893;44.316;0.092;2024-03-08T09:46:02;17.26;53.21
76785;SHT30;66893;44.316;0.092;2024-03-08T09:48:29;17.24;53.20
76785;SHT30;66893;44.316;0.092;2024-03-08T09:50:55;17.23;53.21
76785;SHT30;66893;44.316;0.092;2024-03-08T09:53:21;17.24;53.23
76785;SHT30;66893;44.316;0.092;2024-03-08T09:55:47;17.23;53.30
76785;SHT30;66893;44.316;0.092;2024-03-08T09:58:15;17.23;53.34
76785;SHT30;66893;44.316;0.092;2024-03-08T10:00:53;17.24;53.31
76785;SHT30;66893;44.316;0.092;2024-03-08T10:03:19;17.24;53.39
76785;SHT30;66893;44.316;0.092;2024-03-08T10:05:45;17.23;53.42
76785;SHT30;66893;44.316;0.092;2024-03-08T10:08:11;17.21;53.45
76785;SHT30;66893;44.316;0.092;2024-03-08T10:10:38;17.24;53.44
76785;SHT30;66893;44.316;0.092;2024-03-08T10:13:07;17.24;53.44
76785;SHT30;66893;44.316;0.092;2024-03-08T10:15:33;17.24;53.50
76785;SHT30;66893;44.316;0.092;2024-03-08T10:17:58;17.23;53.49
76785;SHT30;66893;44.316;0.092;2024-03-08T10:20:24;17.23;53.57
76785;SHT30;66893;44.316;0.092;2024-03-08T10:22:50;17.23;53.57
76785;SHT30;66893;44.316;0.092;2024-03-08T10:25:16;17.23;53.57
76785;SHT30;66893;44.316;0.092;2024-03-08T10:27:42;17.23;53.67
76785;SHT30;66893;44.316;0.092;2024-03-08T10:30:15;17.24;53.63
76785;SHT30;66893;44.316;0.092;2024-03-08T10:32:45;17.23;53.68
76785;SHT30;66893;44.316;0.092;2024-03-08T10:35:11;17.24;53.78
76785;SHT30;66893;44.316;0.092;2024-03-08T10:37:45;17.24;53.75
76785;SHT30;66893;44.316;0.092;2024-03-08T10:40:19;17.23;53.76
76785;SHT30;66893;44.316;0.092;2024-03-08T10:45:38;17.24;53.80
76785;SHT30;66893;44.316;0.092;2024-03-08T10:50:48;17.23;53.90
76785;SHT30;66893;44.316;0.092;2024-03-08T10:53:17;17.13;54.15
76785;SHT30;66893;44.316;0.092;2024-03-08T10:55:44;16.99;54.30
76785;SHT30;66893;44.316;0.092;2024-03-08T10:58:10;16.83;54.51
76785;SHT30;66893;44.316;0.092;2024-03-08T11:00:36;16.71;54.69
76785;SHT30;66893;44.316;0.092;2024-03-08T11:03:03;16.58;55.01
76785;SHT30;66893;44.316;0.092;2024-03-08T11:05:41;16.48;55.30
76785;SHT30;66893;44.316;0.092;2024-03-08T11:08:20;16.40;55.35
76785;SHT30;66893;44.316;0.092;2024-03-08T11:10:53;16.30;55.66
76785;SHT30;66893;44.316;0.092;2024-03-08T11:13:41;16.18;55.79
76785;SHT30;66893;44.316;0.092;2024-03-08T11:16:36;16.14;56.14
76785;SHT30;66893;44.316;0.092;2024-03-08T11:19:01;16.09;56.18
76785;SHT30;66893;44.316;0.092;2024-03-08T11:21:30;16.03;56.21
76785;SHT30;66893;44.316;0.092;2024-03-08T11:24:02;16.00;56.59
76785;SHT30;66893;44.316;0.092;2024-03-08T11:26:31;15.96;56.64
76785;SHT30;66893;44.316;0.092;2024-03-08T11:32:23;15.89;57.20
76785;SHT30;66893;44.316;0.092;2024-03-08T11:34:53;15.96;57.55
76785;SHT30;66893;44.316;0.092;2024-03-08T11:37:20;16.03;57.46
76785;SHT30;66893;44.316;0.092;2024-03-08T11:39:50;16.11;57.35
76785;SHT30;66893;44.316;0.092;2024-03-08T11:42:16;16.22;57.30
76785;SHT30;66893;44.316;0.092;2024-03-08T11:44:43;16.30;57.19
76785;SHT30;66893;44.316;0.092;2024-03-08T11:47:12;16.37;57.17
76785;SHT30;66893;44.316;0.092;2024-03-08T11:49:39;16.45;57.24
76785;SHT30;66893;44.316;0.092;2024-03-08T11:52:11;16.54;56.88
76785;SHT30;66893;44.316;0.092;2024-03-08T11:54:38;16.58;56.89
76785;SHT30;66893;44.316;0.092;2024-03-08T11:57:04;16.62;56.84
76785;SHT30;66893;44.316;0.092;2024-03-08T11:59:30;16.68;56.87
76785;SHT30;66893;44.316;0.092;2024-03-08T12:02:05;16.75;56.80
76785;SHT30;66893;44.316;0.092;2024-03-08T12:04:32;16.82;56.71
76785;SHT30;66893;44.316;0.092;2024-03-08T12:07:01;16.87;56.68
76785;SHT30;66893;44.316;0.092;2024-03-08T12:09:28;16.90;56.65
76785;SHT30;66893;44.316;0.092;2024-03-08T12:11:54;16.96;56.56
76785;SHT30;66893;44.316;0.092;2024-03-08T12:14:19;17.02;56.51
76785;SHT30;66893;44.316;0.092;2024-03-08T12:16:46;17.09;56.40
76785;SHT30;66893;44.316;0.092;2024-03-08T12:19:12;17.13;56.47
76785;SHT30;66893;44.316;0.092;2024-03-08T12:21:38;17.16;56.35
76785;SHT30;66893;44.316;0.092;2024-03-08T12:24:10;17.20;56.32
76785;SHT30;66893;44.316;0.092;2024-03-08T12:26:39;17.27;56.26
76785;SHT30;66893;44.316;0.092;2024-03-08T12:29:21;17.30;56.18
76785;SHT30;66893;44.316;0.092;2024-03-08T12:31:50;17.32;56.16
76785;SHT30;66893;44.316;0.092;2024-03-08T12:34:16;17.40;56.12
76785;SHT30;66893;44.316;0.092;2024-03-08T12:36:48;17.41;56.08
76785;SHT30;66893;44.316;0.092;2024-03-08T12:39:19;17.44;56.01
76785;SHT30;66893;44.316;0.092;2024-03-08T12:41:54;17.50;56.01
76785;SHT30;66893;44.316;0.092;2024-03-08T12:44:20;17.52;55.95
76785;SHT30;66893;44.316;0.092;2024-03-08T12:46:48;17.59;55.90
76785;SHT30;66893;44.316;0.092;2024-03-08T12:49:14;17.67;55.81
76785;SHT30;66893;44.316;0.092;2024-03-08T12:51:46;17.74;55.78
76785;SHT30;66893;44.316;0.092;2024-03-08T12:54:12;17.81;55.69
76785;SHT30;66893;44.316;0.092;2024-03-08T12:56:37;17.86;55.67
76785;SHT30;66893;44.316;0.092;2024-03-08T12:59:04;17.96;55.66
76785;SHT30;66893;44.316;0.092;2024-03-08T13:01:31;17.97;55.57
76785;SHT30;66893;44.316;0.092;2024-03-08T13:04:00;18.07;55.51
76785;SHT30;66893;44.316;0.092;2024-03-08T13:06:29;18.12;55.48
76785;SHT30;66893;44.316;0.092;2024-03-08T13:08:56;18.16;55.43
76785;SHT30;66893;44.316;0.092;2024-03-08T13:11:22;18.22;55.40
76785;SHT30;66893;44.316;0.092;2024-03-08T13:13:51;18.24;55.38
76785;SHT30;66893;44.316;0.092;2024-03-08T13:16:18;18.31;55.34
76785;SHT30;66893;44.316;0.092;2024-03-08T13:18:46;18.37;55.33
76785;SHT30;66893;44.316;0.092;2024-03-08T13:21:14;18.43;55.23
76785;SHT30;66893;44.316;0.092;2024-03-08T13:23:41;18.51;55.20
76785;SHT30;66893;44.316;0.092;2024-03-08T13:26:11;18.61;55.08
76785;SHT30;66893;44.316;0.092;2024-03-08T13:28:46;18.69;55.06
76785;SHT30;66893;44.316;0.092;2024-03-08T13:31:13;18.79;54.95
76785;SHT30;66893;44.316;0.092;2024-03-08T13:33:40;18.82;54.91
76785;SHT30;66893;44.316;0.092;2024-03-08T13:36:08;18.89;54.80
76785;SHT30;66893;44.316;0.092;2024-03-08T13:38:44;18.98;54.78
76785;SHT30;66893;44.316;0.092;2024-03-08T13:41:16;19.00;54.70
76785;SHT30;66893;44.316;0.092;2024-03-08T13:43:46;19.10;54.65
76785;SHT30;66893;44.316;0.092;2024-03-08T13:46:14;19.20;54.57
76785;SHT30;66893;44.316;0.092;2024-03-08T13:48:40;19.28;54.43
76785;SHT30;66893;44.316;0.092;2024-03-08T13:51:06;19.35;54.38
76785;SHT30;66893;44.316;0.092;2024-03-08T13:53:33;19.37;54.32
76785;SHT30;66893;44.316;0.092;2024-03-08T13:56:01;19.43;54.27
76785;SHT30;66893;44.316;0.092;2024-03-08T13:58:27;19.49;54.18
76785;SHT30;66893;44.316;0.092;2024-03-08T14:00:52;19.53;54.20
76785;SHT30;66893;44.316;0.092;2024-03-08T14:03:18;19.58;54.10
76785;SHT30;66893;44.316;0.092;2024-03-08T14:05:43;19.64;53.99
76785;SHT30;66893;44.316;0.092;2024-03-08T14:08:10;19.69;53.94
76785;SHT30;66893;44.316;0.092;2024-03-08T14:10:37;19.74;53.85
76785;SHT30;66893;44.316;0.092;2024-03-08T14:13:03;19.77;53.82
76785;SHT30;66893;44.316;0.092;2024-03-08T14:15:31;19.82;53.74
76785;SHT30;66893;44.316;0.092;2024-03-08T14:17:56;19.90;53.72
76785;SHT30;66893;44.316;0.092;2024-03-08T14:20:23;19.99;53.66
76785;SHT30;66893;44.316;0.092;2024-03-08T14:22:55;20.12;53.52
76785;SHT30;66893;44.316;0.092;2024-03-08T14:25:21;20.23;53.37
76785;SHT30;66893;44.316;0.092;2024-03-08T14:27:49;20.32;53.22
76785;SHT30;66893;44.316;0.092;2024-03-08T14:30:15;20.32;53.18
76785;SHT30;66893;44.316;0.092;2024-03-08T14:33:07;20.32;53.10
76785;SHT30;66893;44.316;0.092;2024-03-08T14:35:36;20.29;53.12
76785;SHT30;66893;44.316;0.092;2024-03-08T14:38:02;20.26;53.07
76785;SHT30;66893;44.316;0.092;2024-03-08T14:40:28;20.20;53.01
76785;SHT30;66893;44.316;0.092;2024-03-08T14:42:55;20.16;53.01
76785;SHT30;66893;44.316;0.092;2024-03-08T14:45:21;20.13;52.99
76785;SHT30;66893;44.316;0.092;2024-03-08T14:47:49;20.06;52.97
76785;SHT30;66893;44.316;0.092;2024-03-08T14:50:19;20.02;52.98
76785;SHT30;66893;44.316;0.092;2024-03-08T14:52:45;19.98;52.96
76785;SHT30;66893;44.316;0.092;2024-03-08T14:55:17;19.89;52.93
76785;SHT30;66893;44.316;0.092;2024-03-08T14:57:45;19.83;52.97
76785;SHT30;66893;44.316;0.092;2024-03-08T15:00:12;19.81;52.91
76785;SHT30;66893;44.316;0.092;2024-03-08T15:02:45;19.82;52.92
76785;SHT30;66893;44.316;0.092;2024-03-08T15:05:11;19.79;52.89
76785;SHT30;66893;44.316;0.092;2024-03-08T15:07:38;19.75;52.90
76785;SHT30;66893;44.316;0.092;2024-03-08T15:10:08;19.71;52.92
76785;SHT30;66893;44.316;0.092;2024-03-08T15:12:40;19.68;52.92
76785;SHT30;66893;44.316;0.092;2024-03-08T15:15:09;19.65;52.87
76785;SHT30;66893;44.316;0.092;2024-03-08T15:17:35;19.64;52.93
76785;SHT30;66893;44.316;0.092;2024-03-08T15:20:02;19.62;52.90
76785;SHT30;66893;44.316;0.092;2024-03-08T15:22:28;19.71;52.89
76785;SHT30;66893;44.316;0.092;2024-03-08T15:24:54;20.23;52.48
76785;SHT30;66893;44.316;0.092;2024-03-08T15:27:19;20.55;51.77
76785;SHT30;66893;44.316;0.092;2024-03-08T15:29:45;20.68;51.59
76785;SHT30;66893;44.316;0.092;2024-03-08T15:32:14;20.67;51.51
76785;SHT30;66893;44.316;0.092;2024-03-08T15:34:45;20.70;51.51
76785;SHT30;66893;44.316;0.092;2024-03-08T15:37:10;20.61;51.56
76785;SHT30;66893;44.316;0.092;2024-03-08T15:39:40;20.50;51.70